Aérodrome :
LOGIN :

S'inscrire | Disclaimer

   EN    FR    IT 

 










Légende :    VFR   VFR Marginal   IFR   IFR Intensif   IFR Très Intensif
Visi : 
Plafond : 
>= 8 km
>= 3000ft
5 à 8 km
1000 à 3000 ft
1500m à 5 km
500 à 1000 ft
800 à 1500m
200 à 500 ft
< 800m
< 200 ft
Symboles :   Orages  Brouillard  Fortes neiges  Fortes précipitations  Vent > 20 kt
SIGMETs :   Divers  Orages  Givrage  Turbulence  Onde Orograph.  Cendres Volcan.







- Altitude de l'aérodrome : 36 ft
- Code IATA : GJL


DAAV - Jijel Ferhat Abbas

DERNIER METAR :
  • 261800Z 29004KT 9999 FEW023 23/18 Q1012

METARs EXPIRÉS :
  • 261700Z 31007KT CAVOK 25/18 Q1012
  • 261600Z 33006KT CAVOK 25/18 Q1012

TAF TAF DAAV
Valide du 26 à 18h jusqu'au 27 à 18h UTC


261700Z 2618/2718 07014KT 9999 FEW026
PROB30
TEMPO 2618/2622 FEW023TCU
PROB40
TEMPO 2621/2709 3000 -TSRA FEW023CB BKN030
PROB40
TEMPO 2706/2716 35015G30KT
PROB40
TEMPO 2709/2718 FEW023CB
Pas de NOTAMs connus pour ce terrain.
1 SIGMET publié pour la FIR Alger (DAAA) :
 
Orages noyés dans la masse
DAAA SIGMET 1 VALID 261500/261900 DAMM
DAAA ALGIERS FIR ISOL EMBD TS OBS AND FCST WI N3535 E00820 - N3627 E00531 - N3611 E00230 - N3425 E00236 - N3447 E00506 - N3358 E00736 - N3535 E00820 TOP FL320 MOV E=



MET'MAP, la Météo Aéronautique d'un coup d'oeil ! - Copyright ORBIFLY Décembre 2007 - Disclaimer

ORBIFLY MET'MAP TEAM :

Programmation & Développement : Alexandra Zaïnal
Conception & Développement : Baudouin d'Aumeries
Co-Programmation & Développement : Marc-Olivier Méhu
Soutien technique & logistique : Manuel Goepfert

Contact : metmap@orbifly.com




SOURCES & CREDITS :

   NOAA